Strona główna
METAR-TAF:

METAR-TAF

Lotnisko :

Radom, Polska

Port lotniczy Radom-Sadków

Szerokość geograficzna: 51-23-21N, Długość geograficzna: 21-12-49E, wysokość: 186 m

Aktualna obserwacja pogody

Raport powstał 6 godziny i 45 minut temu, godzina 19:00 UTC
Wiatr 13 kt od północno-północny wschód
Temperatura -11°C
Wilgotność 72%
Ciśnienie 1026 hPa
Widzialność 10 km lub więcej
Mało chmury na wysokości 900 ft
Przerywane chmury na wysokości 2000 ft

METAR: EPRA 241900Z 02013KT 9999 FEW009 BKN020 M11/M15 Q1026

czas: 02:45 (01:45 UTC)

Prognoza

Raport powstał 8 godziny i 15 minut temu, godzina 17:30 UTC
Prognoza ważna od 24 godzina 18 UTC do 25 godzina 03 UTC
Wiatr 8 kt od północny wschód
Widzialność 10 km lub więcej
Przerywane chmury na wysokości 2500 ft
Prawdopodobieństwo 40% :
Przejściowo
od 24 godzina 18 UTC do 24 godzina 21 UTC
Widzialność: 7000 m
Przerywane chmury na wysokości 1400 ft, Cumulonimbus.
słaby przelotny opad śniegu

TAF: EPRA 241730Z 2418/2503 04008KT 9999 BKN025 PROB40 TEMPO 2418/2421 7000 -SHSN BKN014CB

Obserwacja i prognoza pogody dla ponad 4000 lotnisk (raport METAR i TAF).

Dostępne stacje oznaczono żółtymi i czerwonymi punktami na mapie.

Najedź kursorem aby zobaczyć nazwę stacji.

Kliknij aby zobaczyć obserwacje i prognozy pogody.

Aby zmienić mapę: kliknij na zielony przycisk z czarnym krzyżykiem, aby powiększyć; na zielony przycisk z myślnikiem, aby pomniejszyć; na zielone strzałki, aby przejść do map sąsiednich.


METAR-TAF: